Time;durP1;ratioP1;P1;durP2;ratioP2;P2;SDS_P1;SDS_P2;PMS_P1;PMS_P2;Temp;Humidity;BMP_temperature;BMP_pressure;BME280_temperature;BME280_humidity;BME280_pressure;Samples;Min_cycle;Max_cycle;Signal;HPM_P1;HPM_P2
2022/07/26 00:02:14;;;;;;;2.73;1.37;;;;;;;;;;5093532;28;20387;-64
2022/07/26 00:04:41;;;;;;;2.73;1.33;;;;;;;;;;5094103;28;20020;-64
2022/07/26 00:07:08;;;;;;;1.37;0.83;;;;;;;;;;5093778;28;20099;-64
2022/07/26 00:09:34;;;;;;;2.23;1.00;;;;;;;;;;5088397;28;20077;-64
2022/07/26 00:12:01;;;;;;;2.40;1.10;;;;;;;;;;5088425;28;20560;-64
2022/07/26 00:14:28;;;;;;;3.50;1.37;;;;;;;;;;5088344;28;20588;-64
2022/07/26 00:16:55;;;;;;;8.73;2.00;;;;;;;;;;5088092;28;20030;-64
2022/07/26 00:19:22;;;;;;;2.70;1.10;;;;;;;;;;5092868;28;20028;-64
2022/07/26 00:22:32;;;;;;;2.67;1.17;;;;;;;;;;5093570;28;20475;-64
2022/07/26 00:24:35;;;;;;;1.93;1.00;;;;;;;;;;5093416;28;20035;-64
2022/07/26 00:27:02;;;;;;;6.53;1.00;;;;;;;;;;5093533;28;20062;-64
2022/07/26 00:29:28;;;;;;;2.77;1.10;;;;;;;;;;5092855;28;20073;-64
2022/07/26 00:31:55;;;;;;;1.77;1.07;;;;;;;;;;5087976;28;20088;-65
2022/07/26 00:34:22;;;;;;;1.77;1.10;;;;;;;;;;5087935;28;20024;-64
2022/07/26 00:36:49;;;;;;;7.93;1.17;;;;;;;;;;5088037;28;20048;-64
2022/07/26 00:39:15;;;;;;;1.83;1.00;;;;;;;;;;5088249;28;20019;-64
2022/07/26 00:41:42;;;;;;;2.43;1.00;;;;;;;;;;5092996;28;20050;-64
2022/07/26 00:44:09;;;;;;;1.70;1.20;;;;;;;;;;5093208;28;20024;-64
2022/07/26 00:46:35;;;;;;;1.37;0.87;;;;;;;;;;5092895;28;20034;-64
2022/07/26 00:49:02;;;;;;;3.97;1.30;;;;;;;;;;5092402;28;20024;-64
2022/07/26 00:51:29;;;;;;;3.00;1.20;;;;;;;;;;5093108;28;20187;-64
2022/07/26 00:53:56;;;;;;;2.40;0.97;;;;;;;;;;5087782;28;20039;-64
2022/07/26 00:56:22;;;;;;;2.23;1.27;;;;;;;;;;5087807;28;20042;-64
2022/07/26 00:58:49;;;;;;;5.93;0.73;;;;;;;;;;5087592;28;20116;-64
2022/07/26 01:01:16;;;;;;;1.47;0.87;;;;;;;;;;5087372;28;20032;-64
2022/07/26 01:03:43;;;;;;;1.67;0.93;;;;;;;;;;5091399;28;20417;-65
2022/07/26 01:06:09;;;;;;;2.07;1.03;;;;;;;;;;5092652;28;20024;-64
2022/07/26 01:08:36;;;;;;;11.73;1.03;;;;;;;;;;5092387;28;20124;-64
2022/07/26 01:11:03;;;;;;;1.97;1.10;;;;;;;;;;5092334;28;20502;-64
2022/07/26 01:13:30;;;;;;;1.53;0.80;;;;;;;;;;5092809;28;20107;-64
2022/07/26 01:15:56;;;;;;;3.40;1.03;;;;;;;;;;5088565;28;20020;-64
2022/07/26 01:18:23;;;;;;;2.10;0.93;;;;;;;;;;5087584;28;20024;-64
2022/07/26 01:20:50;;;;;;;1.53;1.00;;;;;;;;;;5087113;28;20074;-64
2022/07/26 01:23:17;;;;;;;3.00;1.10;;;;;;;;;;5087036;28;20509;-64
2022/07/26 01:25:44;;;;;;;2.43;0.93;;;;;;;;;;5090809;28;20485;-64
2022/07/26 01:28:10;;;;;;;2.40;1.10;;;;;;;;;;5092472;28;20054;-64
2022/07/26 01:30:37;;;;;;;1.57;0.73;;;;;;;;;;5092324;28;20028;-63
2022/07/26 01:33:04;;;;;;;9.27;1.03;;;;;;;;;;5092558;28;20111;-63
2022/07/26 01:35:31;;;;;;;1.20;0.70;;;;;;;;;;5092663;28;20127;-64
2022/07/26 01:37:57;;;;;;;1.50;0.77;;;;;;;;;;5088526;28;20382;-64
2022/07/26 01:40:24;;;;;;;2.50;1.17;;;;;;;;;;5087478;28;20113;-64
2022/07/26 01:42:51;;;;;;;2.60;1.00;;;;;;;;;;5087571;28;20441;-64
2022/07/26 01:45:17;;;;;;;4.10;0.87;;;;;;;;;;5087390;28;20107;-64
2022/07/26 01:47:48;;;;;;;4.63;1.00;;;;;;;;;;5090089;28;20028;-64
2022/07/26 01:50:16;;;;;;;2.33;0.70;;;;;;;;;;5091947;28;20051;-65
2022/07/26 01:52:43;;;;;;;0.57;0.57;;;;;;;;;;5094520;28;20096;-64
2022/07/26 01:55:10;;;;;;;1.77;0.77;;;;;;;;;;5096251;28;20035;-64
2022/07/26 01:57:37;;;;;;;1.17;0.70;;;;;;;;;;5096619;28;20138;-64
2022/07/26 02:00:05;;;;;;;1.03;0.70;;;;;;;;;;5093798;28;20386;-64
2022/07/26 02:02:32;;;;;;;1.33;0.80;;;;;;;;;;5091127;28;20031;-64
2022/07/26 02:04:58;;;;;;;3.20;1.20;;;;;;;;;;5091371;28;20039;-65
2022/07/26 02:07:26;;;;;;;5.27;1.40;;;;;;;;;;5090691;28;20081;-64
2022/07/26 02:09:53;;;;;;;1.07;0.90;;;;;;;;;;5093207;28;20553;-64
2022/07/26 02:12:20;;;;;;;1.53;0.80;;;;;;;;;;5095801;28;20035;-64
2022/07/26 02:14:46;;;;;;;0.47;0.37;;;;;;;;;;5096245;28;20475;-64
2022/07/26 02:17:13;;;;;;;5.03;0.93;;;;;;;;;;5095870;28;20058;-64
2022/07/26 02:19:40;;;;;;;2.27;1.30;;;;;;;;;;5095956;28;20079;-64
2022/07/26 02:22:07;;;;;;;2.77;1.30;;;;;;;;;;5093708;28;20030;-64
2022/07/26 02:24:33;;;;;;;5.10;1.23;;;;;;;;;;5091239;28;20131;-64
2022/07/26 02:27:01;;;;;;;1.87;1.10;;;;;;;;;;5090705;28;20036;-64
2022/07/26 02:29:28;;;;;;;4.50;1.57;;;;;;;;;;5090332;28;20020;-64
2022/07/26 02:31:55;;;;;;;5.17;1.97;;;;;;;;;;5092479;28;20032;-64
2022/07/26 02:34:22;;;;;;;2.90;1.30;;;;;;;;;;5095952;28;20080;-64
2022/07/26 02:36:49;;;;;;;5.50;1.40;;;;;;;;;;5095325;28;20513;-64
2022/07/26 02:39:16;;;;;;;9.43;0.97;;;;;;;;;;5095836;28;20035;-64
2022/07/26 02:41:42;;;;;;;2.13;1.20;;;;;;;;;;5095867;28;20035;-64
2022/07/26 02:44:09;;;;;;;0.80;0.70;;;;;;;;;;5093683;28;20050;-64
2022/07/26 02:46:36;;;;;;;1.43;0.87;;;;;;;;;;5090210;28;20423;-64
2022/07/26 02:49:03;;;;;;;1.57;0.80;;;;;;;;;;5090484;28;20028;-64
2022/07/26 02:51:30;;;;;;;4.13;1.33;;;;;;;;;;5090300;28;20503;-64
2022/07/26 02:53:57;;;;;;;2.07;0.60;;;;;;;;;;5091257;28;20040;-64
2022/07/26 02:56:23;;;;;;;3.13;1.30;;;;;;;;;;5094884;28;20551;-63
2022/07/26 02:58:50;;;;;;;2.07;0.90;;;;;;;;;;5095545;28;20103;-63
2022/07/26 03:01:17;;;;;;;1.33;1.00;;;;;;;;;;5095471;28;20032;-64
2022/07/26 03:03:43;;;;;;;1.63;0.90;;;;;;;;;;5093446;28;20375;-63
2022/07/26 03:06:10;;;;;;;3.33;1.33;;;;;;;;;;5093821;28;20031;-64
2022/07/26 03:08:37;;;;;;;2.80;1.00;;;;;;;;;;5090302;28;20028;-64
2022/07/26 03:11:05;;;;;;;1.87;0.70;;;;;;;;;;5090022;28;20413;-63
2022/07/26 03:13:31;;;;;;;4.23;1.10;;;;;;;;;;5090020;28;20417;-64
2022/07/26 03:15:59;;;;;;;2.87;1.33;;;;;;;;;;5090540;28;20074;-64
2022/07/26 03:18:25;;;;;;;1.20;0.70;;;;;;;;;;5094948;28;20022;-63
2022/07/26 03:20:52;;;;;;;1.50;0.83;;;;;;;;;;5094361;28;20016;-64
2022/07/26 03:23:19;;;;;;;0.70;0.40;;;;;;;;;;5094974;28;20028;-64
2022/07/26 03:25:45;;;;;;;2.87;1.17;;;;;;;;;;5094795;28;20094;-64
2022/07/26 03:28:12;;;;;;;2.00;1.17;;;;;;;;;;5094255;28;20520;-64
2022/07/26 03:30:39;;;;;;;4.53;1.17;;;;;;;;;;5089837;28;20119;-63
2022/07/26 03:33:06;;;;;;;3.53;1.07;;;;;;;;;;5089785;28;20032;-64
2022/07/26 03:35:32;;;;;;;2.63;1.30;;;;;;;;;;5089492;28;20016;-64
2022/07/26 03:37:59;;;;;;;2.70;1.10;;;;;;;;;;5089409;28;20103;-64
2022/07/26 03:40:27;;;;;;;0.80;0.70;;;;;;;;;;5094572;28;20030;-64
2022/07/26 03:42:54;;;;;;;3.07;1.00;;;;;;;;;;5094579;28;20040;-64
2022/07/26 03:45:21;;;;;;;3.20;1.23;;;;;;;;;;5093885;28;20052;-64
2022/07/26 03:47:48;;;;;;;1.57;1.00;;;;;;;;;;5094115;28;20127;-65
2022/07/26 03:50:14;;;;;;;4.80;1.10;;;;;;;;;;5094425;28;20020;-64
2022/07/26 03:52:41;;;;;;;1.83;0.97;;;;;;;;;;5089180;28;20032;-64
2022/07/26 03:58:13;;;;;;;1.85;1.02;;;;;;;;;;4987345;28;20078;-64
2022/07/26 04:00:40;;;;;;;3.57;1.40;;;;;;;;;;4986845;28;20121;-64
2022/07/26 04:03:07;;;;;;;2.33;1.13;;;;;;;;;;5040534;28;20066;-64
2022/07/26 04:05:33;;;;;;;1.47;0.93;;;;;;;;;;5093738;28;20024;-64
2022/07/26 04:08:00;;;;;;;4.03;1.40;;;;;;;;;;5094202;28;20095;-63
2022/07/26 04:10:27;;;;;;;2.10;1.40;;;;;;;;;;5094182;28;20020;-64
2022/07/26 04:12:53;;;;;;;8.53;1.20;;;;;;;;;;5093394;28;20049;-64
2022/07/26 04:15:20;;;;;;;3.83;1.47;;;;;;;;;;5088288;28;20143;-64
2022/07/26 04:17:47;;;;;;;2.57;1.20;;;;;;;;;;5088882;28;20017;-64
2022/07/26 04:20:14;;;;;;;2.17;1.40;;;;;;;;;;5088767;28;20085;-64
2022/07/26 04:22:41;;;;;;;3.67;1.70;;;;;;;;;;5088283;28;20107;-64
2022/07/26 04:25:09;;;;;;;2.37;1.30;;;;;;;;;;5093809;28;20371;-64
2022/07/26 04:27:36;;;;;;;6.40;1.23;;;;;;;;;;5093657;28;20032;-64
2022/07/26 04:30:03;;;;;;;6.57;1.30;;;;;;;;;;5093585;28;20356;-64
2022/07/26 04:32:30;;;;;;;6.07;1.07;;;;;;;;;;5093233;28;20032;-64
2022/07/26 04:34:57;;;;;;;3.27;1.47;;;;;;;;;;5093371;28;20479;-64
2022/07/26 04:37:24;;;;;;;2.30;1.40;;;;;;;;;;5088214;28;20020;-64
2022/07/26 04:39:50;;;;;;;2.73;1.60;;;;;;;;;;5088041;28;20438;-64
2022/07/26 04:42:17;;;;;;;4.23;1.57;;;;;;;;;;5088397;28;20028;-64
2022/07/26 04:44:44;;;;;;;1.33;0.83;;;;;;;;;;5088224;28;20032;-64
2022/07/26 04:47:10;;;;;;;1.53;0.70;;;;;;;;;;5092265;28;20028;-64
2022/07/26 04:49:37;;;;;;;2.63;0.93;;;;;;;;;;5093241;28;20028;-63
2022/07/26 04:52:04;;;;;;;2.17;1.03;;;;;;;;;;5093067;28;20024;-63
2022/07/26 04:54:31;;;;;;;2.10;1.10;;;;;;;;;;5093351;28;20024;-63
2022/07/26 04:56:57;;;;;;;1.57;0.83;;;;;;;;;;5092706;28;20528;-63
2022/07/26 04:59:24;;;;;;;1.10;0.70;;;;;;;;;;5088611;28;20026;-64
2022/07/26 05:01:51;;;;;;;1.03;0.60;;;;;;;;;;5087971;28;20020;-63
2022/07/26 05:04:17;;;;;;;0.80;0.47;;;;;;;;;;5087626;28;20528;-64
2022/07/26 05:06:45;;;;;;;0.40;0.30;;;;;;;;;;5087544;28;20036;-64
2022/07/26 05:09:11;;;;;;;0.93;0.43;;;;;;;;;;5091703;28;20115;-63
2022/07/26 05:11:38;;;;;;;2.43;0.50;;;;;;;;;;5092733;28;20020;-63
2022/07/26 05:14:05;;;;;;;13.23;0.70;;;;;;;;;;5092478;28;20111;-63
2022/07/26 05:16:32;;;;;;;1.97;1.00;;;;;;;;;;5092877;28;20028;-64
2022/07/26 05:18:58;;;;;;;6.47;1.77;;;;;;;;;;5092666;28;20544;-64
2022/07/26 05:21:26;;;;;;;5.53;2.20;;;;;;;;;;5088828;28;20028;-63
2022/07/26 05:23:54;;;;;;;6.77;2.30;;;;;;;;;;5087569;28;20490;-63
2022/07/26 05:26:21;;;;;;;3.73;1.73;;;;;;;;;;5087049;28;20035;-63
2022/07/26 05:28:48;;;;;;;1.53;1.27;;;;;;;;;;5087428;28;20093;-64
2022/07/26 05:31:14;;;;;;;4.57;2.10;;;;;;;;;;5090518;28;21413;-63
2022/07/26 05:33:41;;;;;;;2.33;1.53;;;;;;;;;;5092595;28;20031;-64
2022/07/26 05:36:08;;;;;;;3.47;1.63;;;;;;;;;;5092353;28;20032;-63
2022/07/26 05:38:35;;;;;;;3.40;1.80;;;;;;;;;;5093234;28;20004;-64
2022/07/26 05:41:01;;;;;;;2.40;1.57;;;;;;;;;;5092592;28;20016;-63
2022/07/26 05:43:28;;;;;;;6.90;2.57;;;;;;;;;;5089077;28;20106;-63
2022/07/26 05:45:56;;;;;;;3.67;1.60;;;;;;;;;;5086883;28;20629;-63
2022/07/26 05:48:23;;;;;;;0.90;0.73;;;;;;;;;;5087282;28;20032;-63
2022/07/26 05:50:50;;;;;;;4.57;1.87;;;;;;;;;;5087480;28;20020;-64
2022/07/26 05:53:16;;;;;;;3.43;1.70;;;;;;;;;;5090111;28;20024;-64
2022/07/26 05:55:43;;;;;;;3.73;1.23;;;;;;;;;;5092366;28;20028;-63
2022/07/26 05:58:10;;;;;;;2.00;1.40;;;;;;;;;;5092564;28;20023;-63
2022/07/26 06:00:37;;;;;;;20.97;1.60;;;;;;;;;;5092050;28;20069;-63
2022/07/26 06:03:20;;;;;;;10.03;1.60;;;;;;;;;;5092294;28;20023;-63
2022/07/26 06:05:50;;;;;;;4.03;1.97;;;;;;;;;;5088832;28;20035;-63
2022/07/26 06:08:17;;;;;;;2.70;1.53;;;;;;;;;;5087374;28;20028;-63
2022/07/26 06:10:45;;;;;;;2.10;1.23;;;;;;;;;;5087101;28;20058;-64
2022/07/26 06:13:12;;;;;;;2.57;1.40;;;;;;;;;;5087216;28;20036;-63
2022/07/26 06:15:39;;;;;;;2.63;1.67;;;;;;;;;;5089521;28;20028;-64
2022/07/26 06:18:06;;;;;;;2.93;1.63;;;;;;;;;;5092059;28;20448;-63
2022/07/26 06:20:33;;;;;;;3.13;1.50;;;;;;;;;;5092288;28;20035;-63
2022/07/26 06:23:00;;;;;;;7.07;1.83;;;;;;;;;;5092161;28;20025;-64
2022/07/26 06:25:27;;;;;;;2.43;1.33;;;;;;;;;;5092217;28;20040;-63
2022/07/26 06:27:54;;;;;;;2.70;1.60;;;;;;;;;;5088842;28;20493;-63
2022/07/26 06:30:21;;;;;;;8.00;1.50;;;;;;;;;;5086922;28;20103;-63
2022/07/26 06:32:47;;;;;;;5.23;1.20;;;;;;;;;;5086072;28;20040;-64
2022/07/26 06:35:14;;;;;;;2.17;1.33;;;;;;;;;;5086974;28;20055;-63
2022/07/26 06:37:42;;;;;;;4.30;1.10;;;;;;;;;;5089558;28;20094;-63
2022/07/26 06:40:10;;;;;;;1.47;1.00;;;;;;;;;;5095645;28;20028;-63
2022/07/26 06:42:37;;;;;;;1.33;1.07;;;;;;;;;;5095804;28;20020;-64
2022/07/26 06:45:04;;;;;;;2.53;1.33;;;;;;;;;;5095741;28;20405;-63
2022/07/26 06:47:30;;;;;;;0.97;0.80;;;;;;;;;;5095293;28;20433;-63
2022/07/26 06:49:57;;;;;;;1.90;1.30;;;;;;;;;;5092821;28;20111;-63
2022/07/26 06:52:24;;;;;;;6.63;1.20;;;;;;;;;;5090487;28;20043;-64
2022/07/26 06:54:51;;;;;;;2.60;1.30;;;;;;;;;;5090437;28;20074;-63
2022/07/26 06:57:17;;;;;;;3.53;1.40;;;;;;;;;;5090298;28;20020;-63
2022/07/26 06:59:44;;;;;;;2.03;1.23;;;;;;;;;;5092010;28;20103;-63
2022/07/26 07:02:10;;;;;;;1.57;1.00;;;;;;;;;;5095432;28;20032;-63
2022/07/26 07:04:37;;;;;;;2.23;1.40;;;;;;;;;;5094891;28;20023;-63
2022/07/26 07:07:04;;;;;;;4.13;1.37;;;;;;;;;;5094806;28;20099;-63
2022/07/26 07:09:31;;;;;;;0.73;0.50;;;;;;;;;;5095326;28;20027;-63
2022/07/26 07:11:58;;;;;;;6.43;0.73;;;;;;;;;;5093060;28;20028;-63
2022/07/26 07:14:25;;;;;;;1.10;0.83;;;;;;;;;;5090157;28;20035;-63
2022/07/26 07:16:51;;;;;;;2.40;1.37;;;;;;;;;;5090024;28;20031;-64
2022/07/26 07:19:18;;;;;;;2.43;1.07;;;;;;;;;;5089488;28;20028;-63
2022/07/26 07:21:45;;;;;;;0.83;0.60;;;;;;;;;;5090803;28;20035;-63
2022/07/26 07:24:11;;;;;;;2.03;1.63;;;;;;;;;;5094567;28;20025;-63
2022/07/26 07:26:38;;;;;;;2.23;1.27;;;;;;;;;;5094943;28;20053;-63
2022/07/26 07:29:05;;;;;;;1.93;0.97;;;;;;;;;;5094636;28;20036;-63
2022/07/26 07:31:31;;;;;;;1.00;0.87;;;;;;;;;;5094989;28;20020;-63
2022/07/26 07:33:58;;;;;;;2.47;1.20;;;;;;;;;;5093512;28;20071;-63
2022/07/26 07:36:25;;;;;;;1.50;0.90;;;;;;;;;;5089578;28;20474;-63
2022/07/26 07:38:51;;;;;;;4.03;1.80;;;;;;;;;;5089607;28;20024;-63
2022/07/26 07:41:18;;;;;;;1.13;0.87;;;;;;;;;;5089295;28;20035;-63
2022/07/26 07:43:45;;;;;;;2.33;1.37;;;;;;;;;;5089922;28;20024;-63
2022/07/26 07:46:11;;;;;;;2.00;1.30;;;;;;;;;;5094353;28;20032;-63
2022/07/26 07:48:41;;;;;;;1.37;0.97;;;;;;;;;;5094638;28;20485;-63
2022/07/26 07:51:08;;;;;;;0.83;0.60;;;;;;;;;;5093233;28;20024;-63
2022/07/26 07:53:35;;;;;;;3.97;1.70;;;;;;;;;;5094373;28;20111;-63
2022/07/26 07:56:02;;;;;;;1.83;1.10;;;;;;;;;;5093636;28;20028;-63
2022/07/26 07:58:28;;;;;;;3.10;1.20;;;;;;;;;;5088948;28;20103;-63
2022/07/26 08:00:55;;;;;;;1.30;0.90;;;;;;;;;;5089212;28;20054;-63
2022/07/26 08:03:22;;;;;;;1.27;1.03;;;;;;;;;;5088936;28;20024;-63
2022/07/26 08:05:49;;;;;;;2.10;1.00;;;;;;;;;;5089085;28;20475;-63
2022/07/26 08:08:16;;;;;;;2.17;1.23;;;;;;;;;;5093234;28;20020;-63
2022/07/26 08:10:43;;;;;;;1.83;0.80;;;;;;;;;;5094284;28;20028;-63
2022/07/26 08:13:09;;;;;;;0.80;0.70;;;;;;;;;;5093887;28;20031;-62
2022/07/26 08:15:36;;;;;;;1.53;0.70;;;;;;;;;;5093654;28;20064;-64
2022/07/26 08:18:03;;;;;;;1.23;0.87;;;;;;;;;;5094036;28;20024;-63
2022/07/26 08:20:29;;;;;;;2.63;1.17;;;;;;;;;;5088697;28;20089;-63
2022/07/26 08:22:56;;;;;;;1.03;0.93;;;;;;;;;;5088385;28;20028;-63
2022/07/26 08:25:23;;;;;;;1.73;1.00;;;;;;;;;;5088754;28;20073;-63
2022/07/26 08:27:49;;;;;;;1.77;1.00;;;;;;;;;;5088598;28;20118;-63
2022/07/26 08:30:16;;;;;;;3.53;1.23;;;;;;;;;;5092878;28;20521;-63
2022/07/26 08:32:43;;;;;;;0.57;0.57;;;;;;;;;;5092855;28;20356;-63
2022/07/26 08:35:10;;;;;;;3.47;1.00;;;;;;;;;;5093760;28;20020;-63
2022/07/26 08:37:37;;;;;;;0.50;0.50;;;;;;;;;;5093391;28;20528;-63
2022/07/26 08:40:04;;;;;;;4.53;0.90;;;;;;;;;;5093648;28;20084;-63
2022/07/26 08:42:31;;;;;;;1.30;0.87;;;;;;;;;;5088538;28;20067;-63
2022/07/26 08:44:57;;;;;;;1.77;1.27;;;;;;;;;;5088028;28;20082;-63
2022/07/26 08:47:24;;;;;;;0.77;0.60;;;;;;;;;;5088604;28;20039;-62
2022/07/26 08:49:51;;;;;;;2.80;1.03;;;;;;;;;;5087868;28;20032;-63
2022/07/26 08:52:17;;;;;;;3.13;1.17;;;;;;;;;;5091981;28;20069;-63
2022/07/26 08:54:45;;;;;;;1.07;0.67;;;;;;;;;;5092724;28;20027;-63
2022/07/26 08:57:12;;;;;;;1.73;0.90;;;;;;;;;;5092921;28;20352;-63
2022/07/26 08:59:39;;;;;;;1.67;1.10;;;;;;;;;;5093291;28;20058;-63
2022/07/26 09:02:07;;;;;;;1.17;0.77;;;;;;;;;;5092970;28;20035;-63
2022/07/26 09:04:34;;;;;;;1.20;0.80;;;;;;;;;;5088846;28;20105;-63
2022/07/26 09:07:04;;;;;;;0.67;0.50;;;;;;;;;;5087823;28;20123;-63
2022/07/26 09:09:32;;;;;;;1.40;0.93;;;;;;;;;;5087570;28;21593;-63
2022/07/26 09:11:59;;;;;;;1.30;0.83;;;;;;;;;;5087632;28;20479;-63
2022/07/26 09:14:36;;;;;;;3.40;0.93;;;;;;;;;;5091108;28;20463;-63
2022/07/26 09:17:04;;;;;;;2.33;1.37;;;;;;;;;;5092943;28;20016;-63
2022/07/26 09:19:33;;;;;;;0.90;0.70;;;;;;;;;;5092428;28;20028;-63
2022/07/26 09:22:06;;;;;;;8.23;0.93;;;;;;;;;;5092875;28;20027;-63
2022/07/26 09:24:34;;;;;;;2.73;1.53;;;;;;;;;;5092200;28;20020;-63
2022/07/26 09:27:02;;;;;;;0.67;0.60;;;;;;;;;;5088313;28;20538;-63
2022/07/26 09:29:29;;;;;;;0.73;0.73;;;;;;;;;;5087402;28;20032;-63
2022/07/26 09:32:12;;;;;;;1.10;0.97;;;;;;;;;;5087573;28;20406;-60
2022/07/26 09:34:39;;;;;;;1.13;1.03;;;;;;;;;;5087577;28;20047;-61
2022/07/26 09:37:06;;;;;;;2.37;1.37;;;;;;;;;;5091832;28;20020;-60
2022/07/26 09:39:32;;;;;;;4.33;1.37;;;;;;;;;;5092409;28;20106;-60
2022/07/26 09:42:06;;;;;;;1.20;0.87;;;;;;;;;;5092748;28;20081;-60
2022/07/26 09:44:32;;;;;;;6.37;1.70;;;;;;;;;;5092033;28;20483;-60
2022/07/26 09:46:59;;;;;;;1.30;0.83;;;;;;;;;;5092519;28;20095;-60
2022/07/26 09:49:26;;;;;;;0.90;0.70;;;;;;;;;;5087750;28;20034;-60
2022/07/26 09:51:53;;;;;;;1.03;0.90;;;;;;;;;;5087381;28;20530;-60
2022/07/26 09:54:31;;;;;;;0.73;0.60;;;;;;;;;;5087146;28;20043;-60
2022/07/26 09:56:58;;;;;;;1.10;0.80;;;;;;;;;;5087336;28;20059;-60
2022/07/26 09:59:26;;;;;;;1.47;1.00;;;;;;;;;;5091196;28;20047;-60
2022/07/26 10:01:53;;;;;;;2.90;1.10;;;;;;;;;;5091886;28;20020;-60
2022/07/26 10:04:21;;;;;;;2.30;1.03;;;;;;;;;;5092486;28;20035;-60
2022/07/26 10:06:48;;;;;;;1.07;0.93;;;;;;;;;;5092290;28;20058;-60
2022/07/26 10:09:15;;;;;;;1.73;1.00;;;;;;;;;;5092306;28;20024;-60
2022/07/26 10:11:44;;;;;;;1.23;1.07;;;;;;;;;;5087563;28;20086;-60
2022/07/26 10:14:29;;;;;;;1.27;0.80;;;;;;;;;;5089803;28;20116;-62
2022/07/26 10:16:56;;;;;;;2.08;1.23;;;;;;;;;;5090896;28;20016;-60
2022/07/26 10:19:39;;;;;;;1.50;0.97;;;;;;;;;;5091116;28;20023;-60
2022/07/26 10:22:25;;;;;;;0.77;0.63;;;;;;;;;;5095875;28;20483;-60
2022/07/26 10:24:56;;;;;;;1.17;0.90;;;;;;;;;;5095966;28;20020;-60
2022/07/26 10:27:42;;;;;;;1.17;0.60;;;;;;;;;;5096082;28;20099;-60
2022/07/26 10:30:18;;;;;;;1.50;1.17;;;;;;;;;;5095910;28;20021;-60
2022/07/26 10:32:58;;;;;;;2.87;1.57;;;;;;;;;;5093453;28;20329;-60
2022/07/26 10:35:32;;;;;;;1.27;0.97;;;;;;;;;;5090894;28;20375;-60
2022/07/26 10:38:00;;;;;;;1.53;1.00;;;;;;;;;;5090675;28;20099;-60
2022/07/26 10:40:29;;;;;;;2.97;1.07;;;;;;;;;;5090767;28;20024;-61
2022/07/26 10:43:16;;;;;;;2.27;1.37;;;;;;;;;;5092767;28;20028;-60
2022/07/26 10:45:43;;;;;;;3.00;1.80;;;;;;;;;;5095643;28;20102;-60
2022/07/26 10:48:11;;;;;;;1.80;1.00;;;;;;;;;;5095154;28;20032;-60
2022/07/26 10:50:39;;;;;;;4.23;1.47;;;;;;;;;;5095642;28;20498;-60
2022/07/26 10:53:07;;;;;;;3.70;1.27;;;;;;;;;;5094977;28;20036;-60
2022/07/26 10:55:44;;;;;;;1.27;0.83;;;;;;;;;;5092614;28;20466;-60
2022/07/26 10:58:11;;;;;;;1.50;0.90;;;;;;;;;;5090368;28;20144;-60
2022/07/26 11:00:38;;;;;;;2.00;1.20;;;;;;;;;;5090394;28;20369;-60
2022/07/26 11:03:04;;;;;;;1.50;1.20;;;;;;;;;;5090205;28;20024;-60
2022/07/26 11:05:33;;;;;;;0.77;0.77;;;;;;;;;;5092874;28;20035;-63
2022/07/26 11:08:09;;;;;;;4.27;1.80;;;;;;;;;;5095493;28;20076;-62
2022/07/26 11:10:43;;;;;;;3.13;1.90;;;;;;;;;;5094953;28;20055;-62
2022/07/26 11:13:12;;;;;;;1.70;1.03;;;;;;;;;;5095084;28;20020;-62
2022/07/26 11:15:40;;;;;;;2.70;1.73;;;;;;;;;;5094710;28;20475;-63
2022/07/26 11:18:12;;;;;;;1.33;0.83;;;;;;;;;;5091132;28;20020;-62
2022/07/26 11:20:39;;;;;;;1.90;1.17;;;;;;;;;;5090137;28;20028;-62
2022/07/26 11:23:19;;;;;;;1.53;1.00;;;;;;;;;;5090007;28;20020;-62
2022/07/26 11:26:06;;;;;;;2.60;1.77;;;;;;;;;;5088700;28;20028;-62
2022/07/26 11:28:52;;;;;;;4.50;2.50;;;;;;;;;;5083156;28;20040;-62
2022/07/26 11:31:19;;;;;;;1.27;1.07;;;;;;;;;;5094804;28;20032;-63
2022/07/26 11:33:47;;;;;;;2.63;2.03;;;;;;;;;;5094318;28;20032;-63
2022/07/26 11:36:14;;;;;;;1.00;0.90;;;;;;;;;;5094909;28;20074;-62
2022/07/26 11:38:44;;;;;;;3.53;1.60;;;;;;;;;;5094218;28;20059;-63
2022/07/26 11:41:11;;;;;;;3.20;2.03;;;;;;;;;;5089459;28;20052;-63
2022/07/26 11:43:38;;;;;;;3.90;2.43;;;;;;;;;;5089749;28;20016;-62
2022/07/26 11:46:05;;;;;;;1.90;1.70;;;;;;;;;;5089440;28;20540;-63
2022/07/26 11:48:32;;;;;;;3.00;2.03;;;;;;;;;;5089349;28;20122;-62
2022/07/26 11:51:15;;;;;;;1.30;1.20;;;;;;;;;;5093912;28;20055;-62
2022/07/26 11:53:43;;;;;;;2.93;2.23;;;;;;;;;;5094331;28;20044;-63
2022/07/26 11:56:19;;;;;;;2.10;1.63;;;;;;;;;;5094402;28;20020;-63
2022/07/26 11:58:47;;;;;;;4.23;2.87;;;;;;;;;;5094337;28;20042;-63
2022/07/26 12:01:16;;;;;;;6.17;3.00;;;;;;;;;;5093669;28;20154;-62
2022/07/26 12:03:43;;;;;;;2.90;2.17;;;;;;;;;;5088451;28;20433;-63
2022/07/26 12:06:12;;;;;;;3.97;2.47;;;;;;;;;;5089125;28;20024;-63
2022/07/26 12:08:40;;;;;;;3.67;2.53;;;;;;;;;;5089073;28;20040;-62
2022/07/26 12:11:07;;;;;;;3.20;1.83;;;;;;;;;;5089069;28;20085;-63
2022/07/26 12:13:47;;;;;;;2.97;2.27;;;;;;;;;;5094026;28;20356;-63
2022/07/26 12:16:33;;;;;;;3.47;2.43;;;;;;;;;;5093098;28;20017;-62
2022/07/26 12:18:59;;;;;;;3.25;2.42;;;;;;;;;;5093985;28;20016;-62
2022/07/26 12:21:39;;;;;;;2.43;2.03;;;;;;;;;;5093830;28;20024;-62
2022/07/26 12:24:06;;;;;;;4.93;2.40;;;;;;;;;;5091773;28;20074;-63
2022/07/26 12:26:32;;;;;;;4.33;2.70;;;;;;;;;;5088318;28;20044;-62
2022/07/26 12:31:44;;;;;;;4.47;2.13;;;;;;;;;;5087967;28;20467;-62
2022/07/26 12:34:11;;;;;;;5.70;3.23;;;;;;;;;;5090325;28;20036;-62
2022/07/26 12:36:38;;;;;;;9.40;2.93;;;;;;;;;;5093134;28;20111;-62
2022/07/26 12:39:05;;;;;;;5.87;4.80;;;;;;;;;;5093057;28;20050;-62
2022/07/26 12:41:32;;;;;;;35.70;4.10;;;;;;;;;;5093537;28;20043;-62
2022/07/26 12:43:59;;;;;;;3.17;2.47;;;;;;;;;;5093527;28;20027;-62
2022/07/26 12:46:25;;;;;;;5.50;3.00;;;;;;;;;;5090976;28;20077;-62
2022/07/26 12:48:52;;;;;;;4.60;3.00;;;;;;;;;;5088458;28;20032;-62
2022/07/26 12:51:19;;;;;;;4.60;3.03;;;;;;;;;;5088211;28;20024;-63
2022/07/26 12:53:45;;;;;;;4.57;2.33;;;;;;;;;;5088087;28;20025;-63
2022/07/26 12:56:12;;;;;;;4.70;2.27;;;;;;;;;;5089503;28;20054;-62
2022/07/26 12:58:39;;;;;;;3.73;2.57;;;;;;;;;;5093311;28;20035;-62
2022/07/26 13:01:05;;;;;;;2.10;1.70;;;;;;;;;;5093013;28;20028;-63
2022/07/26 13:03:32;;;;;;;3.77;2.20;;;;;;;;;;5091792;28;20032;-62
2022/07/26 13:05:59;;;;;;;4.57;2.33;;;;;;;;;;5093041;28;20035;-63
2022/07/26 13:08:25;;;;;;;6.40;3.83;;;;;;;;;;5091301;28;20016;-62
2022/07/26 13:10:52;;;;;;;3.50;2.43;;;;;;;;;;5087404;28;20165;-63
2022/07/26 13:13:19;;;;;;;5.73;3.73;;;;;;;;;;5087869;28;20055;-63
2022/07/26 13:15:46;;;;;;;5.60;3.93;;;;;;;;;;5087749;28;20062;-63
2022/07/26 13:18:13;;;;;;;5.50;3.27;;;;;;;;;;5088491;28;20103;-62
2022/07/26 13:20:40;;;;;;;10.77;4.23;;;;;;;;;;5092974;28;20382;-63
2022/07/26 13:23:10;;;;;;;4.67;3.80;;;;;;;;;;5092428;28;20444;-63
2022/07/26 13:25:37;;;;;;;4.13;2.80;;;;;;;;;;5092653;28;20111;-62
2022/07/26 13:28:04;;;;;;;7.93;3.30;;;;;;;;;;5092250;28;20032;-63
2022/07/26 13:30:31;;;;;;;6.20;3.20;;;;;;;;;;5091435;28;20036;-63
2022/07/26 13:32:57;;;;;;;4.37;3.47;;;;;;;;;;5087266;28;20040;-63
2022/07/26 13:35:24;;;;;;;7.50;3.77;;;;;;;;;;5087688;28;20028;-62
2022/07/26 13:37:50;;;;;;;5.20;3.00;;;;;;;;;;5087698;28;20066;-63
2022/07/26 13:40:17;;;;;;;3.93;2.50;;;;;;;;;;5087472;28;20117;-63
2022/07/26 13:42:44;;;;;;;2.67;1.73;;;;;;;;;;5091980;28;20027;-63
2022/07/26 13:45:11;;;;;;;15.80;3.77;;;;;;;;;;5092448;28;20020;-63
2022/07/26 13:47:37;;;;;;;6.40;3.20;;;;;;;;;;5091764;28;20024;-63
2022/07/26 13:50:04;;;;;;;4.13;2.90;;;;;;;;;;5092488;28;20024;-63
2022/07/26 13:52:31;;;;;;;3.47;2.10;;;;;;;;;;5091739;28;20507;-63
2022/07/26 13:54:58;;;;;;;7.90;3.10;;;;;;;;;;5087515;28;20455;-63
2022/07/26 13:57:24;;;;;;;4.83;3.00;;;;;;;;;;5086984;28;20109;-63
2022/07/26 13:59:51;;;;;;;16.37;2.90;;;;;;;;;;5086958;28;20024;-63
2022/07/26 14:02:18;;;;;;;5.60;2.73;;;;;;;;;;5087307;28;20035;-63
2022/07/26 14:04:44;;;;;;;8.23;2.77;;;;;;;;;;5092212;28;20020;-63
2022/07/26 14:07:11;;;;;;;2.27;1.67;;;;;;;;;;5092314;28;20031;-63
2022/07/26 14:09:38;;;;;;;5.20;2.50;;;;;;;;;;5092298;28;20047;-63
2022/07/26 14:12:05;;;;;;;3.43;2.13;;;;;;;;;;5091799;28;20020;-64
2022/07/26 14:14:31;;;;;;;5.43;2.27;;;;;;;;;;5092167;28;20460;-63
2022/07/26 14:16:58;;;;;;;7.57;2.53;;;;;;;;;;5086834;28;20067;-63
2022/07/26 14:19:25;;;;;;;2.93;1.97;;;;;;;;;;5087022;28;20024;-63
2022/07/26 14:21:52;;;;;;;3.90;2.23;;;;;;;;;;5086773;28;20026;-63
2022/07/26 14:24:18;;;;;;;8.77;1.77;;;;;;;;;;5087315;28;20047;-63
2022/07/26 14:26:45;;;;;;;7.40;1.73;;;;;;;;;;5091577;28;20040;-63
2022/07/26 14:29:12;;;;;;;3.27;1.80;;;;;;;;;;5092038;28;20442;-63
2022/07/26 14:31:38;;;;;;;2.73;1.77;;;;;;;;;;5092017;28;20514;-63
2022/07/26 14:34:05;;;;;;;3.97;2.00;;;;;;;;;;5091854;28;20151;-64
2022/07/26 14:36:32;;;;;;;3.70;2.03;;;;;;;;;;5091592;28;20466;-63
2022/07/26 14:38:59;;;;;;;3.03;1.53;;;;;;;;;;5087239;28;20031;-64
2022/07/26 14:41:25;;;;;;;19.77;8.90;;;;;;;;;;5086622;28;20157;-64
2022/07/26 14:43:52;;;;;;;8.10;3.10;;;;;;;;;;5087021;28;20501;-64
2022/07/26 14:46:19;;;;;;;3.57;2.00;;;;;;;;;;5086784;28;20463;-64
2022/07/26 14:48:46;;;;;;;9.47;3.73;;;;;;;;;;5090379;28;20387;-63
2022/07/26 14:51:13;;;;;;;2.27;1.70;;;;;;;;;;5091602;28;20024;-64
2022/07/26 14:53:41;;;;;;;9.07;2.53;;;;;;;;;;5091614;28;20040;-65